createdAt,value
2022-11-29T00:01:40.395Z,100081.28
2022-11-29T00:04:07.647Z,100078.03
2022-11-29T00:06:35.148Z,100067.31
2022-11-29T00:09:07.926Z,100068.97
2022-11-29T00:11:55.418Z,100071.28
2022-11-29T00:14:23.133Z,100072.31
2022-11-29T00:16:52.050Z,100076.34
2022-11-29T00:19:19.401Z,100066.25
2022-11-29T00:21:46.204Z,100077.53
2022-11-29T00:24:13.689Z,100079.50
2022-11-29T00:26:40.521Z,100074.56
2022-11-29T00:29:07.358Z,100082.47
2022-11-29T00:31:34.589Z,100084.69
2022-11-29T00:34:04.602Z,100087.34
2022-11-29T00:36:31.524Z,100080.94
2022-11-29T00:38:58.400Z,100089.06
2022-11-29T00:41:25.802Z,100092.06
2022-11-29T00:43:53.158Z,100093.94
2022-11-29T00:46:20.087Z,100098.19
2022-11-29T00:48:47.005Z,100097.19
2022-11-29T00:51:13.748Z,100100.66
2022-11-29T00:53:40.771Z,100104.97
2022-11-29T00:56:08.133Z,100106.44
2022-11-29T00:58:36.377Z,100096.22
2022-11-29T01:01:03.773Z,100102.59
2022-11-29T01:03:31.062Z,100100.69
2022-11-29T01:06:05.508Z,100105.84
2022-11-29T01:08:32.857Z,100112.28
2022-11-29T01:11:13.523Z,100115.44
2022-11-29T01:13:41.498Z,100117.41
2022-11-29T01:16:09.299Z,100120.13
2022-11-29T01:18:36.832Z,100124.16
2022-11-29T01:21:12.456Z,100118.84
2022-11-29T01:23:39.619Z,100126.78
2022-11-29T01:26:13.168Z,100126.25
2022-11-29T01:28:40.892Z,100129.34
2022-11-29T01:31:13.697Z,100136.47
2022-11-29T01:33:40.602Z,100138.16
2022-11-29T01:36:08.397Z,100134.19
2022-11-29T01:38:35.723Z,100142.50
2022-11-29T01:41:08.559Z,100150.81
2022-11-29T01:43:57.809Z,100152.31
2022-11-29T01:46:25.467Z,100152.66
2022-11-29T01:48:54.944Z,100154.47
2022-11-29T01:51:22.175Z,100155.41
2022-11-29T01:53:49.052Z,100157.94
2022-11-29T01:56:16.420Z,100158.78
2022-11-29T01:58:45.053Z,100161.53
2022-11-29T02:01:12.683Z,100155.66
2022-11-29T02:03:39.614Z,100159.28
2022-11-29T02:06:06.990Z,100157.59
2022-11-29T02:08:37.909Z,100163.97
2022-11-29T02:11:07.426Z,100168.53
2022-11-29T02:13:39.163Z,100173.56
2022-11-29T02:16:12.168Z,100168.25
2022-11-29T02:18:55.717Z,100186.63
2022-11-29T02:22:07.281Z,100187.25
2022-11-29T02:24:49.867Z,100189.78
2022-11-29T02:27:35.445Z,100191.28
2022-11-29T02:30:28.078Z,100201.09
2022-11-29T02:33:30.200Z,100204.25
2022-11-29T02:36:16.833Z,100213.94
2022-11-29T02:39:02.465Z,100206.28
2022-11-29T02:41:57.969Z,100215.81
2022-11-29T02:44:27.778Z,100213.50
2022-11-29T02:47:11.544Z,100230.53
2022-11-29T02:50:01.027Z,100218.59
2022-11-29T02:52:40.234Z,100223.22
2022-11-29T02:55:16.491Z,100217.09
2022-11-29T02:57:51.750Z,100215.47
2022-11-29T03:00:20.677Z,100224.22
2022-11-29T03:03:00.267Z,100215.97
2022-11-29T03:05:51.649Z,100213.81
2022-11-29T03:08:33.689Z,100225.56
2022-11-29T03:11:09.688Z,100229.88
2022-11-29T03:13:46.486Z,100224.25
2022-11-29T03:16:19.268Z,100230.25
2022-11-29T03:19:15.502Z,100224.94
2022-11-29T03:22:11.626Z,100228.06
2022-11-29T03:25:06.574Z,100232.88
2022-11-29T03:28:12.557Z,100235.06
2022-11-29T03:30:41.389Z,100238.69
2022-11-29T03:33:32.430Z,100239.53
2022-11-29T03:36:05.056Z,100236.88
2022-11-29T03:38:46.558Z,100235.88
2022-11-29T03:41:18.084Z,100237.53
2022-11-29T03:44:05.749Z,100243.97
2022-11-29T03:46:42.110Z,100236.19
2022-11-29T03:49:27.805Z,100244.00
2022-11-29T03:52:06.403Z,100245.97
2022-11-29T03:55:07.403Z,100254.06
2022-11-29T03:57:50.377Z,100261.50
2022-11-29T04:00:18.373Z,100260.03
2022-11-29T04:03:22.731Z,100254.38
2022-11-29T04:05:49.544Z,100262.97
2022-11-29T04:08:42.252Z,100258.66
2022-11-29T04:11:58.831Z,100256.84
2022-11-29T04:14:33.787Z,100260.78
2022-11-29T04:17:37.509Z,100267.91
2022-11-29T04:20:15.003Z,100272.25
2022-11-29T04:22:46.130Z,100271.75
2022-11-29T04:25:36.977Z,100263.50
2022-11-29T04:28:18.555Z,100270.28
2022-11-29T04:30:56.902Z,100271.94
2022-11-29T04:33:32.934Z,100275.22
2022-11-29T04:36:14.872Z,100278.03
2022-11-29T04:38:46.605Z,100275.84
2022-11-29T04:41:28.606Z,100272.88
2022-11-29T04:44:16.789Z,100286.13
2022-11-29T04:46:43.576Z,100273.53
2022-11-29T04:49:29.113Z,100278.00
2022-11-29T04:52:28.126Z,100276.03
2022-11-29T04:55:30.725Z,100269.91
2022-11-29T04:58:21.170Z,100277.50
2022-11-29T05:01:32.403Z,100285.13
2022-11-29T05:04:04.943Z,100284.47
2022-11-29T05:07:09.431Z,100295.53
2022-11-29T05:10:00.839Z,100303.78
2022-11-29T05:12:33.790Z,100307.59
2022-11-29T05:15:22.127Z,100305.59
2022-11-29T05:18:09.507Z,100308.91
2022-11-29T05:20:47.402Z,100318.88
2022-11-29T05:23:28.068Z,100325.94
2022-11-29T05:26:00.575Z,100329.91
2022-11-29T05:28:46.102Z,100334.63
2022-11-29T05:31:25.224Z,100337.00
2022-11-29T05:34:35.075Z,100339.28
2022-11-29T05:37:26.580Z,100336.94
2022-11-29T05:39:58.559Z,100338.28
2022-11-29T05:42:38.974Z,100339.97
2022-11-29T05:45:30.737Z,100341.91
2022-11-29T05:48:10.824Z,100348.41
2022-11-29T05:50:42.408Z,100342.28
2022-11-29T05:53:22.417Z,100347.34
2022-11-29T05:56:04.831Z,100349.06
2022-11-29T05:58:46.689Z,100353.16
2022-11-29T06:01:23.385Z,100362.41
2022-11-29T06:04:14.592Z,100369.94
2022-11-29T06:06:58.055Z,100366.81
2022-11-29T06:09:28.688Z,100377.09
2022-11-29T06:12:05.583Z,100369.59
2022-11-29T06:15:03.480Z,100381.59
2022-11-29T06:17:34.341Z,100380.75
2022-11-29T06:20:11.182Z,100391.88
2022-11-29T06:23:14.065Z,100389.00
2022-11-29T06:26:20.455Z,100393.66
2022-11-29T06:29:10.792Z,100404.97
2022-11-29T06:31:44.531Z,100401.84
2022-11-29T06:34:31.031Z,100405.72
2022-11-29T06:37:05.652Z,100401.81
2022-11-29T06:39:32.774Z,100404.75
2022-11-29T06:41:59.632Z,100413.88
2022-11-29T06:44:26.822Z,100406.50
2022-11-29T06:47:16.967Z,100416.22
2022-11-29T06:49:54.749Z,100414.00
2022-11-29T06:52:29.875Z,100413.97
2022-11-29T06:55:11.607Z,100414.50
2022-11-29T06:58:24.540Z,100415.31
2022-11-29T07:00:59.656Z,100420.53
2022-11-29T07:03:59.087Z,100418.88
2022-11-29T07:06:27.450Z,100420.97
2022-11-29T07:09:00.951Z,100418.19
2022-11-29T07:11:28.885Z,100435.53
2022-11-29T07:13:56.304Z,100424.59
2022-11-29T07:16:35.845Z,100428.44
2022-11-29T07:19:27.558Z,100435.25
2022-11-29T07:22:38.746Z,100430.03
2022-11-29T07:25:17.363Z,100440.19
2022-11-29T07:27:53.626Z,100438.25
2022-11-29T07:30:25.624Z,100434.78
2022-11-29T07:33:21.501Z,100439.97
2022-11-29T07:36:09.436Z,100436.34
2022-11-29T07:39:18.059Z,100437.91
2022-11-29T07:41:53.035Z,100440.22
2022-11-29T07:44:37.541Z,100443.38
2022-11-29T07:47:04.462Z,100452.13
2022-11-29T07:49:32.069Z,100451.47
2022-11-29T07:51:58.869Z,100445.50
2022-11-29T07:54:25.678Z,100451.09
2022-11-29T07:56:52.828Z,100455.22
2022-11-29T07:59:20.259Z,100451.75
2022-11-29T08:01:47.135Z,100454.84
2022-11-29T08:04:14.218Z,100456.38
2022-11-29T08:06:41.140Z,100457.19
2022-11-29T08:09:07.989Z,100467.75
2022-11-29T08:11:34.858Z,100467.38
2022-11-29T08:14:03.780Z,100468.44
2022-11-29T08:16:30.660Z,100472.34
2022-11-29T08:18:57.609Z,100479.72
2022-11-29T08:21:24.706Z,100465.13
2022-11-29T08:23:51.706Z,100475.50
2022-11-29T08:26:19.960Z,100475.53
2022-11-29T08:28:52.040Z,100478.31
2022-11-29T08:31:19.824Z,100475.97
2022-11-29T08:33:47.413Z,100486.38
2022-11-29T08:36:17.675Z,100484.03
2022-11-29T08:38:44.816Z,100484.88
2022-11-29T08:41:14.144Z,100481.84
2022-11-29T08:43:41.679Z,100479.44
2022-11-29T08:46:11.350Z,100478.44
2022-11-29T08:48:42.140Z,100479.34
2022-11-29T08:51:09.023Z,100485.25
2022-11-29T08:53:41.855Z,100490.38
2022-11-29T08:59:05.621Z,100488.41
2022-11-29T09:01:32.754Z,100495.50
2022-11-29T09:03:59.611Z,100493.28
2022-11-29T09:06:28.961Z,100492.84
2022-11-29T09:08:56.542Z,100495.47
2022-11-29T09:11:25.094Z,100499.47
2022-11-29T09:13:54.869Z,100503.31
2022-11-29T09:16:25.348Z,100505.44
2022-11-29T09:18:55.171Z,100507.53
2022-11-29T09:21:24.589Z,100509.38
2022-11-29T09:23:58.836Z,100519.69
2022-11-29T09:26:29.350Z,100528.56
2022-11-29T09:28:58.331Z,100529.19
2022-11-29T09:31:25.623Z,100521.34
2022-11-29T09:33:52.565Z,100526.78
2022-11-29T09:36:23.745Z,100537.22
2022-11-29T09:38:53.552Z,100537.81
2022-11-29T09:41:26.384Z,100536.91
2022-11-29T09:44:11.774Z,100542.94
2022-11-29T09:46:41.395Z,100549.94
2022-11-29T09:49:50.047Z,100551.75
2022-11-29T09:52:38.416Z,100547.41
2022-11-29T09:55:24.169Z,100546.41
2022-11-29T09:57:52.870Z,100548.31
2022-11-29T10:00:20.536Z,100559.56
2022-11-29T10:03:02.850Z,100560.16
2022-11-29T10:05:51.744Z,100559.56
2022-11-29T10:08:21.363Z,100557.03
2022-11-29T10:10:49.884Z,100563.50
2022-11-29T10:13:35.192Z,100569.47
2022-11-29T10:16:12.477Z,100568.78
2022-11-29T10:19:05.154Z,100559.63
2022-11-29T10:21:37.099Z,100560.41
2022-11-29T10:24:17.966Z,100555.78
2022-11-29T10:26:44.905Z,100553.63
2022-11-29T10:29:15.669Z,100561.09
2022-11-29T10:31:49.577Z,100558.81
2022-11-29T10:34:20.415Z,100563.13
2022-11-29T10:37:01.474Z,100563.75
2022-11-29T10:39:34.103Z,100564.91
2022-11-29T10:42:03.548Z,100567.91
2022-11-29T10:44:32.302Z,100561.13
2022-11-29T10:47:00.621Z,100569.84
2022-11-29T10:49:28.488Z,100562.41
2022-11-29T10:51:55.355Z,100565.41
2022-11-29T10:54:31.711Z,100560.28
2022-11-29T10:57:00.853Z,100554.31
2022-11-29T10:59:29.958Z,100562.63
2022-11-29T11:01:57.750Z,100552.19
2022-11-29T11:04:33.539Z,100547.56
2022-11-29T11:07:02.416Z,100552.53
2022-11-29T11:09:38.042Z,100546.44
2022-11-29T11:12:19.343Z,100548.41
2022-11-29T11:14:47.260Z,100540.78
2022-11-29T11:17:19.188Z,100548.38
2022-11-29T11:20:02.131Z,100549.88
2022-11-29T11:22:29.883Z,100546.06
2022-11-29T11:25:00.076Z,100551.91
2022-11-29T11:27:32.040Z,100549.91
2022-11-29T11:29:59.402Z,100547.09
2022-11-29T11:32:29.130Z,100561.34
2022-11-29T11:35:01.137Z,100569.13
2022-11-29T11:37:30.969Z,100574.44
2022-11-29T11:40:00.379Z,100567.31
2022-11-29T11:42:38.758Z,100569.97
2022-11-29T11:45:05.670Z,100571.94
2022-11-29T11:47:33.586Z,100561.50
2022-11-29T11:50:00.397Z,100560.81
2022-11-29T11:52:30.274Z,100554.88
2022-11-29T11:55:07.581Z,100549.53
2022-11-29T11:57:34.478Z,100554.19
2022-11-29T12:00:06.700Z,100547.84
2022-11-29T12:02:43.757Z,100552.97
2022-11-29T12:05:14.264Z,100545.97
2022-11-29T12:08:07.236Z,100548.78
2022-11-29T12:10:34.989Z,100547.44
2022-11-29T12:13:02.166Z,100557.53
2022-11-29T12:15:33.153Z,100554.69
2022-11-29T12:18:33.830Z,100560.06
2022-11-29T12:21:10.373Z,100546.31
2022-11-29T12:23:45.536Z,100542.78
2022-11-29T12:26:55.468Z,100544.75
2022-11-29T12:29:23.116Z,100544.09
2022-11-29T12:31:55.244Z,100539.22
2022-11-29T12:34:42.992Z,100543.84
2022-11-29T12:37:28.200Z,100542.78
2022-11-29T12:40:21.672Z,100553.44
2022-11-29T12:43:00.368Z,100557.16
2022-11-29T12:45:35.260Z,100560.44
2022-11-29T12:48:26.421Z,100546.78
2022-11-29T12:51:02.143Z,100554.22
2022-11-29T12:53:34.805Z,100555.28
2022-11-29T12:56:19.162Z,100561.59
2022-11-29T12:59:08.495Z,100561.81
2022-11-29T13:02:06.187Z,100561.84
2022-11-29T13:04:42.978Z,100562.81
2022-11-29T13:07:24.824Z,100553.38
2022-11-29T13:10:07.000Z,100559.91
2022-11-29T13:12:40.730Z,100556.66
2022-11-29T13:15:18.971Z,100560.91
2022-11-29T13:18:23.856Z,100555.41
2022-11-29T13:21:01.834Z,100562.81
2022-11-29T13:23:39.414Z,100558.72
2022-11-29T13:26:23.150Z,100565.53
2022-11-29T13:28:50.594Z,100568.22
2022-11-29T13:31:24.944Z,100563.38
2022-11-29T13:34:10.381Z,100580.75
2022-11-29T13:37:11.002Z,100578.56
2022-11-29T13:40:14.829Z,100575.94
2022-11-29T13:43:04.226Z,100580.16
2022-11-29T13:45:43.333Z,100578.13
2022-11-29T13:48:28.778Z,100578.19
2022-11-29T13:51:00.143Z,100571.84
2022-11-29T13:53:48.293Z,100561.97
2022-11-29T13:56:27.320Z,100566.13
2022-11-29T13:58:54.740Z,100547.19
2022-11-29T14:01:22.642Z,100547.31
2022-11-29T14:04:29.214Z,100539.13
2022-11-29T14:07:25.625Z,100546.97
2022-11-29T14:10:28.563Z,100548.03
2022-11-29T14:12:57.905Z,100546.56
2022-11-29T14:15:31.842Z,100543.81
2022-11-29T14:18:05.468Z,100543.44
2022-11-29T14:20:32.739Z,100550.31
2022-11-29T14:23:06.268Z,100545.19
2022-11-29T14:25:55.584Z,100538.66
2022-11-29T14:28:22.742Z,100552.81
2022-11-29T14:30:50.621Z,100552.28
2022-11-29T14:33:43.928Z,100560.22
2022-11-29T14:36:25.932Z,100557.78
2022-11-29T14:39:05.021Z,100562.47
2022-11-29T14:41:31.903Z,100558.84
2022-11-29T14:44:26.171Z,100559.56
2022-11-29T14:47:19.466Z,100561.75
2022-11-29T14:49:47.161Z,100571.09
2022-11-29T14:52:13.928Z,100574.59
2022-11-29T14:55:03.926Z,100574.25
2022-11-29T14:58:06.195Z,100573.72
2022-11-29T15:00:47.326Z,100573.94
2022-11-29T15:03:17.562Z,100580.75
2022-11-29T15:05:47.287Z,100579.38
2022-11-29T15:08:32.256Z,100589.88
2022-11-29T15:11:03.068Z,100582.63
2022-11-29T15:13:32.293Z,100589.06
2022-11-29T15:16:26.351Z,100586.22
2022-11-29T15:18:53.208Z,100591.28
2022-11-29T15:21:52.161Z,100587.84
2022-11-29T15:24:19.828Z,100593.13
2022-11-29T15:27:02.749Z,100587.19
2022-11-29T15:29:31.137Z,100594.00
2022-11-29T15:31:59.713Z,100580.41
2022-11-29T15:34:35.372Z,100593.16
2022-11-29T15:37:02.274Z,100594.66
2022-11-29T15:39:38.220Z,100602.44
2022-11-29T15:42:11.560Z,100589.34
2022-11-29T15:44:45.683Z,100586.19
2022-11-29T15:47:25.689Z,100590.38
2022-11-29T15:49:54.010Z,100590.19
2022-11-29T15:52:31.778Z,100592.50
2022-11-29T15:55:01.273Z,100591.66
2022-11-29T15:57:35.685Z,100598.28
2022-11-29T16:00:05.098Z,100591.66
2022-11-29T16:02:34.471Z,100590.00
2022-11-29T16:05:10.571Z,100577.91
2022-11-29T16:07:38.775Z,100587.84
2022-11-29T16:10:13.176Z,100596.28
2022-11-29T16:13:01.090Z,100596.13
2022-11-29T16:15:34.180Z,100609.88
2022-11-29T16:18:15.329Z,100607.75
2022-11-29T16:20:43.005Z,100604.41
2022-11-29T16:23:13.558Z,100615.84
2022-11-29T16:25:56.062Z,100619.59
2022-11-29T16:28:34.619Z,100623.91
2022-11-29T16:31:01.638Z,100624.31
2022-11-29T16:33:28.426Z,100624.88
2022-11-29T16:36:16.161Z,100621.56
2022-11-29T16:38:45.657Z,100617.03
2022-11-29T16:41:41.855Z,100621.06
2022-11-29T16:44:41.447Z,100622.09
2022-11-29T16:47:12.595Z,100632.81
2022-11-29T16:49:39.480Z,100626.56
2022-11-29T16:52:26.624Z,100621.84
2022-11-29T16:54:53.570Z,100637.00
2022-11-29T16:57:20.826Z,100629.06
2022-11-29T16:59:47.868Z,100644.91
2022-11-29T17:02:15.578Z,100640.38
2022-11-29T17:04:43.332Z,100639.88
2022-11-29T17:07:20.171Z,100634.75
2022-11-29T17:09:47.037Z,100640.78
2022-11-29T17:12:13.951Z,100643.09
2022-11-29T17:14:40.931Z,100642.84
2022-11-29T17:17:07.717Z,100643.75
2022-11-29T17:19:34.668Z,100650.66
2022-11-29T17:22:01.476Z,100645.03
2022-11-29T17:24:30.596Z,100646.34
2022-11-29T17:26:57.527Z,100648.00
2022-11-29T17:29:24.345Z,100649.56
2022-11-29T17:31:53.194Z,100648.34
2022-11-29T17:34:20.226Z,100652.72
2022-11-29T17:36:47.324Z,100657.84
2022-11-29T17:39:15.753Z,100653.56
2022-11-29T17:41:42.557Z,100668.34
2022-11-29T17:44:09.632Z,100665.28
2022-11-29T17:46:37.556Z,100667.19
2022-11-29T17:49:06.739Z,100665.03
2022-11-29T17:54:24.247Z,100661.56
2022-11-29T17:56:51.333Z,100671.84
2022-11-29T17:59:18.526Z,100685.97
2022-11-29T18:01:47.416Z,100680.66
2022-11-29T18:04:14.816Z,100679.84
2022-11-29T18:06:42.098Z,100685.38
2022-11-29T18:09:10.180Z,100691.72
2022-11-29T18:11:46.975Z,100695.22
2022-11-29T18:14:17.846Z,100706.47
2022-11-29T18:16:47.563Z,100705.84
2022-11-29T18:19:17.105Z,100701.19
2022-11-29T18:21:44.204Z,100708.13
2022-11-29T18:24:11.056Z,100710.09
2022-11-29T18:26:38.508Z,100711.00
2022-11-29T18:29:06.831Z,100717.28
2022-11-29T18:31:35.744Z,100713.22
2022-11-29T18:34:07.007Z,100720.44
2022-11-29T18:36:36.652Z,100726.94
2022-11-29T18:39:08.907Z,100726.25
2022-11-29T18:41:36.337Z,100726.56
2022-11-29T18:44:08.288Z,100725.25
2022-11-29T18:46:37.419Z,100723.66
2022-11-29T18:49:06.197Z,100713.56
2022-11-29T18:51:37.170Z,100730.69
2022-11-29T18:54:05.025Z,100724.31
2022-11-29T18:56:34.556Z,100725.16
2022-11-29T18:59:10.390Z,100728.31
2022-11-29T19:01:41.190Z,100735.59
2022-11-29T19:04:08.976Z,100730.50
2022-11-29T19:06:39.732Z,100729.78
2022-11-29T19:09:11.236Z,100734.50
2022-11-29T19:11:38.293Z,100729.31
2022-11-29T19:14:11.156Z,100726.06
2022-11-29T19:16:40.097Z,100747.91
2022-11-29T19:19:07.159Z,100742.19
2022-11-29T19:21:34.751Z,100749.53
2022-11-29T19:24:06.912Z,100752.69
2022-11-29T19:26:34.759Z,100749.69
2022-11-29T19:29:04.207Z,100743.72
2022-11-29T19:31:31.673Z,100748.47
2022-11-29T19:33:58.615Z,100753.59
2022-11-29T19:36:30.498Z,100747.84
2022-11-29T19:39:01.470Z,100762.28
2022-11-29T19:41:33.417Z,100764.41
2022-11-29T19:44:05.842Z,100765.53
2022-11-29T19:46:36.194Z,100776.28
2022-11-29T19:49:05.003Z,100770.59
2022-11-29T19:51:32.396Z,100777.56
2022-11-29T19:54:01.522Z,100782.09
2022-11-29T19:56:29.205Z,100786.25
2022-11-29T19:58:56.254Z,100786.84
2022-11-29T20:01:27.982Z,100795.38
2022-11-29T20:03:58.649Z,100804.38
2022-11-29T20:06:30.469Z,100812.56
2022-11-29T20:08:57.677Z,100809.69
2022-11-29T20:11:25.351Z,100804.41
2022-11-29T20:13:54.963Z,100814.69
2022-11-29T20:16:22.259Z,100804.88
2022-11-29T20:18:51.159Z,100807.38
2022-11-29T20:52:59.484Z,100813.75
2022-11-29T20:55:26.460Z,100823.44
2022-11-29T20:57:55.188Z,100818.78
2022-11-29T21:00:22.318Z,100818.50
2022-11-29T21:02:49.378Z,100820.38
2022-11-29T21:05:16.508Z,100826.75
2022-11-29T21:07:44.160Z,100826.41
2022-11-29T21:10:11.407Z,100825.94
2022-11-29T21:12:38.802Z,100826.06
2022-11-29T21:15:06.527Z,100827.06
2022-11-29T21:17:34.180Z,100825.78
2022-11-29T21:20:01.444Z,100825.22
2022-11-29T21:22:42.211Z,100819.59
2022-11-29T21:25:54.149Z,100834.34
2022-11-29T21:28:25.560Z,100819.91
2022-11-29T21:30:52.771Z,100823.97
2022-11-29T21:33:19.881Z,100823.22
2022-11-29T21:35:48.183Z,100829.34
2022-11-29T21:38:17.724Z,100827.38
2022-11-29T21:40:44.537Z,100819.66
2022-11-29T21:43:11.420Z,100820.91
2022-11-29T21:45:38.295Z,100830.94
2022-11-29T21:48:25.248Z,100826.56
2022-11-29T21:50:52.163Z,100829.88
2022-11-29T21:53:18.992Z,100832.66
2022-11-29T21:55:45.937Z,100833.19
2022-11-29T21:58:12.754Z,100827.88
2022-11-29T22:00:39.730Z,100837.91
2022-11-29T22:03:06.607Z,100827.06
2022-11-29T22:05:33.509Z,100824.50
2022-11-29T22:08:00.355Z,100825.94
2022-11-29T22:10:28.063Z,100818.25
2022-11-29T22:12:54.911Z,100815.75
2022-11-29T22:15:24.823Z,100822.06
2022-11-29T22:17:53.452Z,100824.88
2022-11-29T22:20:20.512Z,100825.88
2022-11-29T22:22:48.655Z,100824.97
2022-11-29T22:25:15.902Z,100829.50
2022-11-29T22:27:42.677Z,100823.22
2022-11-29T22:30:09.860Z,100825.09
2022-11-29T22:32:36.709Z,100824.50
2022-11-29T22:35:03.641Z,100821.22
2022-11-29T22:37:30.444Z,100826.47
2022-11-29T22:39:57.778Z,100816.50
2022-11-29T22:42:24.747Z,100815.88
2022-11-29T22:44:51.869Z,100813.66
2022-11-29T22:47:21.490Z,100814.50
2022-11-29T22:49:49.693Z,100820.31
2022-11-29T22:52:16.514Z,100826.59
2022-11-29T22:54:44.521Z,100832.50
2022-11-29T22:57:11.665Z,100836.00
2022-11-29T22:59:38.609Z,100827.09
2022-11-29T23:02:05.588Z,100830.50
2022-11-29T23:04:32.535Z,100824.38
2022-11-29T23:06:59.937Z,100814.72
2022-11-29T23:09:26.660Z,100813.53
2022-11-29T23:11:55.813Z,100813.28
2022-11-29T23:14:23.340Z,100816.59
2022-11-29T23:16:50.786Z,100821.53
2022-11-29T23:19:18.170Z,100817.44
2022-11-29T23:21:46.272Z,100816.31
2022-11-29T23:24:14.898Z,100809.59
2022-11-29T23:26:44.477Z,100819.50
2022-11-29T23:29:16.541Z,100810.66
2022-11-29T23:31:43.795Z,100816.66
2022-11-29T23:34:11.274Z,100819.09
2022-11-29T23:36:38.152Z,100823.78
2022-11-29T23:39:06.694Z,100817.84
2022-11-29T23:41:34.595Z,100824.28
2022-11-29T23:44:04.022Z,100829.03
2022-11-29T23:46:31.014Z,100830.56
2022-11-29T23:48:57.797Z,100829.06
2022-11-29T23:51:24.671Z,100835.25
2022-11-29T23:53:54.857Z,100832.06
2022-11-29T23:56:22.282Z,100834.19
2022-11-29T23:58:49.978Z,100838.94
